createdAt,value
2022-12-23T00:00:24.036Z,4.39
2022-12-23T00:02:51.853Z,4.40
2022-12-23T00:05:19.805Z,4.40
2022-12-23T00:07:47.700Z,4.39
2022-12-23T00:10:15.479Z,4.41
2022-12-23T00:13:00.584Z,4.41
2022-12-23T00:15:29.744Z,4.40
2022-12-23T00:17:57.517Z,4.40
2022-12-23T00:20:25.212Z,4.42
2022-12-23T00:23:08.378Z,4.43
2022-12-23T00:25:44.927Z,4.42
2022-12-23T00:28:14.859Z,4.43
2022-12-23T00:30:48.607Z,4.42
2022-12-23T00:33:17.643Z,4.43
2022-12-23T00:35:46.592Z,4.44
2022-12-23T00:38:14.875Z,4.44
2022-12-23T00:41:00.161Z,4.44
2022-12-23T00:43:28.272Z,4.44
2022-12-23T00:45:57.383Z,4.44
2022-12-23T00:48:46.073Z,4.45
2022-12-23T00:51:13.773Z,4.43
2022-12-23T00:53:41.520Z,4.46
2022-12-23T00:56:09.221Z,4.45
2022-12-23T00:58:37.012Z,4.45
2022-12-23T01:01:23.856Z,4.43
2022-12-23T01:04:09.442Z,4.44
2022-12-23T01:06:37.235Z,4.44
2022-12-23T01:09:05.225Z,4.44
2022-12-23T01:11:32.982Z,4.46
2022-12-23T01:14:00.917Z,4.45
2022-12-23T01:16:30.197Z,4.48
2022-12-23T01:18:58.072Z,4.52
2022-12-23T01:21:25.777Z,4.56
2022-12-23T01:23:53.546Z,4.59
2022-12-23T01:26:21.271Z,4.62
2022-12-23T01:28:49.001Z,4.63
2022-12-23T01:31:16.818Z,4.66
2022-12-23T01:33:46.178Z,4.68
2022-12-23T01:36:13.926Z,4.68
2022-12-23T01:38:41.705Z,4.70
2022-12-23T01:41:29.540Z,4.75
2022-12-23T01:43:56.336Z,4.76
2022-12-23T01:46:24.134Z,4.79
2022-12-23T01:48:54.133Z,4.82
2022-12-23T01:51:26.541Z,4.84
2022-12-23T01:53:58.491Z,4.85
2022-12-23T01:56:31.143Z,4.87
2022-12-23T01:59:01.737Z,4.90
2022-12-23T02:01:48.291Z,4.92
2022-12-23T02:04:22.086Z,4.96
2022-12-23T02:07:09.591Z,5.01
2022-12-23T02:09:39.046Z,5.04
2022-12-23T02:12:32.671Z,5.06
2022-12-23T02:15:30.909Z,5.08
2022-12-23T02:18:08.441Z,5.06
2022-12-23T02:21:08.703Z,5.09
2022-12-23T02:24:20.187Z,5.12
2022-12-23T02:27:09.692Z,5.11
2022-12-23T02:30:09.318Z,5.12
2022-12-23T02:32:46.838Z,5.14
2022-12-23T02:35:20.547Z,5.13
2022-12-23T02:37:56.510Z,5.12
2022-12-23T02:40:32.844Z,5.10
2022-12-23T02:43:06.261Z,5.10
2022-12-23T02:45:40.408Z,5.08
2022-12-23T02:48:13.639Z,5.07
2022-12-23T02:50:44.781Z,5.07
2022-12-23T02:53:18.285Z,5.06
2022-12-23T02:55:49.807Z,5.06
2022-12-23T02:58:21.991Z,5.09
2022-12-23T03:00:50.990Z,5.09
2022-12-23T03:03:21.275Z,5.10
2022-12-23T03:05:52.091Z,5.09
2022-12-23T03:08:26.499Z,5.11
2022-12-23T03:11:04.293Z,5.11
2022-12-23T03:13:49.773Z,5.11
2022-12-23T03:16:24.769Z,5.10
2022-12-23T03:19:07.247Z,5.11
2022-12-23T03:21:40.585Z,5.10
2022-12-23T03:24:20.027Z,5.10
2022-12-23T03:26:53.323Z,5.10
2022-12-23T03:29:27.867Z,5.11
2022-12-23T03:31:58.676Z,5.11
2022-12-23T03:34:32.934Z,5.11
2022-12-23T03:37:06.315Z,5.12
2022-12-23T03:39:37.774Z,5.12
2022-12-23T03:42:11.035Z,5.12
2022-12-23T03:44:57.073Z,5.14
2022-12-23T03:47:33.625Z,5.18
2022-12-23T03:50:07.053Z,5.21
2022-12-23T03:52:38.644Z,5.25
2022-12-23T03:55:12.082Z,5.32
2022-12-23T03:57:45.006Z,5.35
2022-12-23T04:00:13.590Z,5.40
2022-12-23T04:02:52.338Z,5.45
2022-12-23T04:05:27.034Z,5.49
2022-12-23T04:08:01.045Z,5.53
2022-12-23T04:10:29.624Z,5.56
2022-12-23T04:12:57.559Z,5.60
2022-12-23T04:15:27.414Z,5.63
2022-12-23T04:17:57.546Z,5.64
2022-12-23T04:20:29.123Z,5.67
2022-12-23T04:22:56.921Z,5.68
2022-12-23T04:25:24.859Z,5.68
2022-12-23T04:27:52.677Z,5.67
2022-12-23T04:30:20.637Z,5.67
2022-12-23T04:32:48.442Z,5.69
2022-12-23T04:35:16.336Z,5.69
2022-12-23T04:37:45.522Z,5.71
2022-12-23T04:40:13.996Z,5.71
2022-12-23T04:42:41.965Z,5.72
2022-12-23T04:45:10.953Z,5.74
2022-12-23T04:47:38.774Z,5.75
2022-12-23T04:50:07.668Z,5.77
2022-12-23T04:52:35.469Z,5.79
2022-12-23T04:55:04.887Z,5.80
2022-12-23T04:57:32.693Z,5.79
2022-12-23T05:00:00.462Z,5.80
2022-12-23T05:02:28.728Z,5.81
2022-12-23T05:04:56.525Z,5.81
2022-12-23T05:07:24.264Z,5.82
2022-12-23T05:09:51.989Z,5.84
2022-12-23T05:12:21.107Z,5.84
2022-12-23T05:14:48.838Z,5.85
2022-12-23T05:17:16.587Z,5.84
2022-12-23T05:19:44.474Z,5.81
2022-12-23T05:22:12.215Z,5.81
2022-12-23T05:24:39.972Z,5.79
2022-12-23T05:27:07.749Z,5.77
2022-12-23T05:29:36.860Z,5.77
2022-12-23T05:32:05.089Z,5.74
2022-12-23T05:34:33.411Z,5.73
2022-12-23T05:37:01.162Z,5.72
2022-12-23T05:39:28.908Z,5.70
2022-12-23T05:41:56.839Z,5.69
2022-12-23T05:44:24.687Z,5.68
2022-12-23T05:46:53.753Z,5.67
2022-12-23T05:49:22.675Z,5.66
2022-12-23T05:51:50.365Z,5.65
2022-12-23T05:54:18.096Z,5.65
2022-12-23T05:56:45.930Z,5.64
2022-12-23T05:59:13.683Z,5.63
2022-12-23T06:01:41.558Z,5.63
2022-12-23T06:04:10.841Z,5.62
2022-12-23T06:06:38.800Z,5.62
2022-12-23T06:09:06.806Z,5.62
2022-12-23T06:11:34.821Z,5.63
2022-12-23T06:14:02.803Z,5.65
2022-12-23T06:16:30.675Z,5.66
2022-12-23T06:18:58.868Z,5.67
2022-12-23T06:21:27.957Z,5.67
2022-12-23T06:23:55.647Z,5.69
2022-12-23T06:26:23.644Z,5.70
2022-12-23T06:28:51.459Z,5.72
2022-12-23T06:31:19.225Z,5.73
2022-12-23T06:33:47.057Z,5.75
2022-12-23T06:36:14.887Z,5.79
2022-12-23T06:38:44.056Z,5.81
2022-12-23T06:41:12.017Z,5.84
2022-12-23T06:43:39.879Z,5.86
2022-12-23T06:46:07.642Z,5.89
2022-12-23T06:48:35.433Z,5.94
2022-12-23T06:51:03.395Z,5.98
2022-12-23T06:53:31.198Z,6.01
2022-12-23T06:56:04.248Z,6.04
2022-12-23T06:58:32.551Z,6.03
2022-12-23T07:01:00.362Z,6.03
2022-12-23T07:03:28.367Z,6.02
2022-12-23T07:05:56.180Z,6.01
2022-12-23T07:08:23.907Z,6.02
2022-12-23T07:10:51.855Z,5.99
2022-12-23T07:13:21.081Z,5.98
2022-12-23T07:15:48.810Z,5.97
2022-12-23T07:18:16.579Z,5.97
2022-12-23T07:20:44.300Z,5.97
2022-12-23T07:23:12.148Z,5.97
2022-12-23T07:25:39.940Z,5.97
2022-12-23T07:28:07.711Z,5.97
2022-12-23T07:30:37.250Z,5.99
2022-12-23T07:33:05.135Z,6.01
2022-12-23T07:35:33.052Z,6.03
2022-12-23T07:38:00.968Z,6.05
2022-12-23T07:40:28.680Z,6.06
2022-12-23T07:42:58.869Z,6.09
2022-12-23T07:45:27.535Z,6.10
2022-12-23T07:47:58.267Z,6.11
2022-12-23T07:50:26.972Z,6.11
2022-12-23T07:52:56.124Z,6.12
2022-12-23T07:55:23.849Z,6.15
2022-12-23T07:57:52.072Z,6.17
2022-12-23T08:00:21.327Z,6.18
2022-12-23T08:02:49.659Z,6.20
2022-12-23T08:05:19.825Z,6.22
2022-12-23T08:07:49.909Z,6.23
2022-12-23T08:10:17.769Z,6.24
2022-12-23T08:12:46.460Z,6.27
2022-12-23T08:15:14.196Z,6.27
2022-12-23T08:17:42.144Z,6.29
2022-12-23T08:20:10.606Z,6.32
2022-12-23T08:22:39.828Z,6.31
2022-12-23T08:25:08.333Z,6.31
2022-12-23T08:27:36.890Z,6.31
2022-12-23T08:30:05.084Z,6.34
2022-12-23T08:32:33.079Z,6.35
2022-12-23T08:35:00.842Z,6.36
2022-12-23T08:37:28.714Z,6.39
2022-12-23T08:39:57.675Z,6.40
2022-12-23T08:42:25.324Z,6.43
2022-12-23T08:44:52.977Z,6.45
2022-12-23T08:47:20.625Z,6.48
2022-12-23T08:49:48.986Z,6.52
2022-12-23T08:52:16.602Z,6.55
2022-12-23T08:54:44.216Z,6.59
2022-12-23T08:57:13.197Z,6.60
2022-12-23T08:59:40.797Z,6.62
2022-12-23T09:02:10.856Z,6.64
2022-12-23T09:04:39.699Z,6.65
2022-12-23T09:07:07.354Z,6.65
2022-12-23T09:09:36.430Z,6.67
2022-12-23T09:12:04.530Z,6.68
2022-12-23T09:14:33.646Z,6.68
2022-12-23T09:17:01.341Z,6.67
2022-12-23T09:19:28.976Z,6.68
2022-12-23T09:21:56.692Z,6.68
2022-12-23T09:24:24.278Z,6.66
2022-12-23T09:26:51.930Z,6.65
2022-12-23T09:29:19.528Z,6.62
2022-12-23T09:31:48.565Z,6.64
2022-12-23T09:34:16.199Z,6.65
2022-12-23T09:36:43.961Z,6.68
2022-12-23T09:39:11.683Z,6.70
2022-12-23T09:41:52.281Z,6.72
2022-12-23T09:44:44.540Z,6.74
2022-12-23T09:47:18.964Z,6.74
2022-12-23T09:49:50.759Z,6.77
2022-12-23T09:52:25.814Z,6.78
2022-12-23T09:54:55.913Z,6.79
2022-12-23T09:57:32.305Z,6.81
2022-12-23T10:00:07.270Z,6.83
2022-12-23T10:02:45.526Z,6.88
2022-12-23T10:05:25.847Z,6.94
2022-12-23T10:07:59.568Z,6.96
2022-12-23T10:10:34.728Z,6.97
2022-12-23T10:13:06.484Z,6.95
2022-12-23T10:15:38.797Z,6.99
2022-12-23T10:18:16.271Z,7.07
2022-12-23T10:20:48.351Z,7.11
2022-12-23T10:23:20.210Z,7.13
2022-12-23T10:25:52.093Z,7.14
2022-12-23T10:28:20.357Z,7.13
2022-12-23T10:33:57.423Z,7.11
2022-12-23T10:36:35.833Z,7.10
2022-12-23T10:39:14.068Z,7.10
2022-12-23T10:41:49.366Z,7.09
2022-12-23T10:44:33.946Z,7.11
2022-12-23T10:47:10.424Z,7.13
2022-12-23T10:49:50.721Z,7.16
2022-12-23T10:52:21.589Z,7.15
2022-12-23T10:54:50.205Z,7.16
2022-12-23T10:57:19.931Z,7.14
2022-12-23T10:59:47.878Z,7.13
2022-12-23T11:02:36.693Z,7.12
2022-12-23T11:05:16.949Z,7.10
2022-12-23T11:07:46.930Z,7.08
2022-12-23T11:10:19.287Z,7.07
2022-12-23T11:12:48.692Z,7.07
2022-12-23T11:15:28.084Z,7.06
2022-12-23T11:18:03.370Z,7.06
2022-12-23T11:20:32.983Z,7.06
2022-12-23T11:23:02.878Z,7.06
2022-12-23T11:25:36.990Z,7.06
2022-12-23T11:28:08.591Z,7.09
2022-12-23T11:30:39.607Z,7.10
2022-12-23T11:33:07.591Z,7.14
2022-12-23T11:35:38.038Z,7.18
2022-12-23T11:38:05.766Z,7.21
2022-12-23T11:40:38.289Z,7.23
2022-12-23T11:43:12.715Z,7.27
2022-12-23T11:45:40.655Z,7.29
2022-12-23T11:48:28.850Z,7.34
2022-12-23T11:51:02.884Z,7.36
2022-12-23T11:53:31.442Z,7.38
2022-12-23T11:56:02.121Z,7.42
2022-12-23T11:58:32.083Z,7.44
2022-12-23T12:01:01.672Z,7.45
2022-12-23T12:03:32.853Z,7.45
2022-12-23T12:06:04.577Z,7.47
2022-12-23T12:08:34.682Z,7.46
2022-12-23T12:11:07.223Z,7.46
2022-12-23T12:13:40.045Z,7.46
2022-12-23T12:16:52.040Z,7.47
2022-12-23T12:19:28.258Z,7.49
2022-12-23T12:22:01.610Z,7.45
2022-12-23T12:24:34.204Z,7.44
2022-12-23T12:27:06.209Z,7.41
2022-12-23T12:29:40.272Z,7.42
2022-12-23T12:32:15.696Z,7.42
2022-12-23T12:34:50.304Z,7.44
2022-12-23T12:37:28.112Z,7.42
2022-12-23T12:40:00.629Z,7.43
2022-12-23T12:42:34.608Z,7.42
2022-12-23T12:45:14.459Z,7.43
2022-12-23T12:48:02.145Z,7.43
2022-12-23T12:50:37.655Z,7.42
2022-12-23T12:53:23.345Z,7.44
2022-12-23T12:55:57.016Z,7.43
2022-12-23T12:58:26.046Z,7.43
2022-12-23T13:01:08.198Z,7.41
2022-12-23T13:03:58.145Z,7.40
2022-12-23T13:06:33.908Z,7.38
2022-12-23T13:09:14.529Z,7.37
2022-12-23T13:11:54.016Z,7.36
2022-12-23T13:14:33.880Z,7.36
2022-12-23T13:17:08.886Z,7.35
2022-12-23T13:19:43.704Z,7.34
2022-12-23T13:22:18.645Z,7.36
2022-12-23T13:24:58.557Z,7.37
2022-12-23T13:27:32.829Z,7.38
2022-12-23T13:30:07.828Z,7.40
2022-12-23T13:33:02.144Z,7.41
2022-12-23T13:35:39.618Z,7.39
2022-12-23T13:38:22.122Z,7.38
2022-12-23T13:41:01.876Z,7.35
2022-12-23T13:43:41.577Z,7.33
2022-12-23T13:46:18.799Z,7.32
2022-12-23T13:48:55.325Z,7.32
2022-12-23T13:51:31.498Z,7.31
2022-12-23T13:54:05.491Z,7.31
2022-12-23T13:56:43.193Z,7.32
2022-12-23T13:59:12.703Z,7.30
2022-12-23T14:01:47.597Z,7.30
2022-12-23T14:04:36.081Z,7.30
2022-12-23T14:07:17.783Z,7.28
2022-12-23T14:09:51.873Z,7.26
2022-12-23T14:12:27.762Z,7.24
2022-12-23T14:15:25.922Z,7.22
2022-12-23T14:18:19.013Z,7.21
2022-12-23T14:20:51.958Z,7.17
2022-12-23T14:23:33.372Z,7.16
2022-12-23T14:26:36.551Z,7.13
2022-12-23T14:29:31.000Z,7.10
2022-12-23T14:31:59.433Z,7.09
2022-12-23T14:34:30.581Z,7.06
2022-12-23T14:37:31.725Z,7.03
2022-12-23T14:39:59.578Z,7.01
2022-12-23T14:42:41.129Z,7.00
2022-12-23T14:45:36.481Z,6.98
2022-12-23T14:48:32.183Z,6.96
2022-12-23T14:51:01.832Z,6.91
2022-12-23T14:53:30.603Z,6.89
2022-12-23T14:56:12.914Z,6.87
2022-12-23T14:58:59.232Z,6.84
2022-12-23T15:01:41.575Z,6.80
2022-12-23T15:04:17.710Z,6.78
2022-12-23T15:06:47.390Z,6.76
2022-12-23T15:09:23.738Z,6.73
2022-12-23T15:11:52.359Z,6.71
2022-12-23T15:14:30.982Z,6.69
2022-12-23T15:17:00.040Z,6.66
2022-12-23T15:19:29.551Z,6.64
2022-12-23T15:22:17.323Z,6.62
2022-12-23T15:24:50.107Z,6.59
2022-12-23T15:27:27.251Z,6.57
2022-12-23T15:29:56.357Z,6.54
2022-12-23T15:32:26.403Z,6.51
2022-12-23T15:35:00.944Z,6.49
2022-12-23T15:37:30.799Z,6.48
2022-12-23T15:40:09.618Z,6.46
2022-12-23T15:42:39.463Z,6.43
2022-12-23T15:45:30.484Z,6.42
2022-12-23T15:47:59.621Z,6.41
2022-12-23T15:50:28.577Z,6.39
2022-12-23T15:52:59.807Z,6.37
2022-12-23T15:55:31.211Z,6.34
2022-12-23T15:58:01.196Z,6.33
2022-12-23T16:00:36.191Z,6.31
2022-12-23T16:03:15.437Z,6.30
2022-12-23T16:05:44.863Z,6.29
2022-12-23T16:08:28.531Z,6.27
2022-12-23T16:11:05.325Z,6.26
2022-12-23T16:13:33.863Z,6.24
2022-12-23T16:16:30.568Z,6.24
2022-12-23T16:18:59.715Z,6.22
2022-12-23T16:21:31.441Z,6.21
2022-12-23T16:24:00.692Z,6.21
2022-12-23T16:26:28.925Z,6.17
2022-12-23T16:29:00.292Z,6.18
2022-12-23T16:31:28.031Z,6.16
2022-12-23T16:33:58.058Z,6.15
2022-12-23T16:36:36.026Z,6.14
2022-12-23T16:39:18.035Z,6.13
2022-12-23T16:41:45.936Z,6.12
2022-12-23T16:44:13.713Z,6.12
2022-12-23T16:46:44.493Z,6.12
2022-12-23T16:49:16.543Z,6.09
2022-12-23T16:51:45.854Z,6.09
2022-12-23T16:54:16.848Z,6.08
2022-12-23T16:56:46.757Z,6.07
2022-12-23T16:59:15.112Z,6.06
2022-12-23T17:01:46.271Z,6.05
2022-12-23T17:04:14.296Z,6.05
2022-12-23T17:06:42.620Z,6.03
2022-12-23T17:09:14.991Z,6.04
2022-12-23T17:11:45.543Z,6.04
2022-12-23T17:14:17.322Z,6.03
2022-12-23T17:16:45.553Z,6.04
2022-12-23T17:19:13.632Z,6.02
2022-12-23T17:21:43.725Z,6.03
2022-12-23T17:24:18.228Z,6.02
2022-12-23T17:26:45.823Z,6.02
2022-12-23T17:29:14.171Z,6.02
2022-12-23T17:31:44.201Z,6.01
2022-12-23T17:34:16.803Z,5.99
2022-12-23T17:36:49.469Z,6.00
2022-12-23T17:39:20.130Z,6.01
2022-12-23T17:41:48.168Z,6.00
2022-12-23T17:44:17.690Z,5.99
2022-12-23T17:46:46.679Z,5.99
2022-12-23T17:49:14.393Z,5.99
2022-12-23T17:51:43.169Z,5.99
2022-12-23T17:54:21.844Z,6.00
2022-12-23T17:56:49.996Z,5.98
2022-12-23T17:59:17.675Z,5.99
2022-12-23T18:01:46.047Z,5.98
2022-12-23T18:04:13.769Z,5.99
2022-12-23T18:06:41.389Z,5.98
2022-12-23T18:09:09.091Z,5.98
2022-12-23T18:11:42.108Z,5.98
2022-12-23T18:14:15.541Z,5.99
2022-12-23T18:16:43.248Z,6.00
2022-12-23T18:19:17.799Z,5.99
2022-12-23T18:21:45.561Z,6.00
2022-12-23T18:24:13.483Z,6.02
2022-12-23T18:26:42.997Z,6.03
2022-12-23T18:29:10.680Z,6.02
2022-12-23T18:31:50.261Z,6.03
2022-12-23T18:34:19.046Z,6.03
2022-12-23T18:36:48.213Z,6.04
2022-12-23T18:39:16.138Z,6.03
2022-12-23T18:41:45.154Z,6.03
2022-12-23T18:44:19.213Z,6.03
2022-12-23T18:46:47.044Z,6.04
2022-12-23T18:49:14.799Z,6.02
2022-12-23T18:51:42.529Z,6.04
2022-12-23T18:54:13.944Z,6.03
2022-12-23T18:56:41.552Z,6.03
2022-12-23T18:59:16.778Z,6.03
2022-12-23T19:01:44.693Z,6.02
2022-12-23T19:04:13.027Z,6.03
2022-12-23T19:06:40.926Z,6.04
2022-12-23T19:09:15.345Z,6.03
2022-12-23T19:11:43.042Z,6.04
2022-12-23T19:14:12.653Z,6.05
2022-12-23T19:16:44.687Z,6.04
2022-12-23T19:19:15.410Z,6.05
2022-12-23T19:21:43.044Z,6.05
2022-12-23T19:24:10.669Z,6.05
2022-12-23T19:26:38.371Z,6.05
2022-12-23T19:29:06.236Z,6.04
2022-12-23T19:31:35.313Z,6.05
2022-12-23T19:34:03.047Z,6.04
2022-12-23T19:36:30.923Z,6.05
2022-12-23T19:38:58.896Z,6.05
2022-12-23T19:41:26.557Z,6.04
2022-12-23T19:43:54.174Z,6.06
2022-12-23T19:46:21.935Z,6.07
2022-12-23T19:48:54.684Z,6.05
2022-12-23T19:51:22.335Z,6.06
2022-12-23T19:53:52.671Z,6.07
2022-12-23T19:56:21.981Z,6.06
2022-12-23T19:58:50.434Z,6.06
2022-12-23T20:01:20.141Z,6.07
2022-12-23T20:03:49.280Z,6.06
2022-12-23T20:06:22.340Z,6.06
2022-12-23T20:08:54.948Z,6.06
2022-12-23T20:11:26.724Z,6.06
2022-12-23T20:13:56.065Z,6.06
2022-12-23T20:16:24.222Z,6.06
2022-12-23T20:18:52.100Z,6.06
2022-12-23T20:21:21.639Z,6.05
2022-12-23T20:23:49.822Z,6.05
2022-12-23T20:26:18.770Z,6.06
2022-12-23T20:28:46.527Z,6.06
2022-12-23T20:31:17.273Z,6.07
2022-12-23T20:33:44.963Z,6.07
2022-12-23T20:36:15.084Z,6.07
2022-12-23T20:38:46.045Z,6.07
2022-12-23T20:41:16.088Z,6.07
2022-12-23T20:43:52.529Z,6.07
2022-12-23T20:46:30.865Z,6.07
2022-12-23T20:48:58.920Z,6.07
2022-12-23T20:51:26.776Z,6.08
2022-12-23T20:54:00.033Z,6.07
2022-12-23T20:56:30.277Z,6.08
2022-12-23T20:58:59.540Z,6.09
2022-12-23T21:01:29.552Z,6.09
2022-12-23T21:03:58.856Z,6.10
2022-12-23T21:06:27.264Z,6.11
2022-12-23T21:08:58.886Z,6.10
2022-12-23T21:11:29.181Z,6.12
2022-12-23T21:14:02.633Z,6.10
2022-12-23T21:16:34.314Z,6.11
2022-12-23T21:19:02.026Z,6.09
2022-12-23T21:21:31.809Z,6.10
2022-12-23T21:24:04.971Z,6.10
2022-12-23T21:26:34.164Z,6.10
2022-12-23T21:29:03.928Z,6.11
2022-12-23T21:31:33.230Z,6.11
2022-12-23T21:34:00.946Z,6.13
2022-12-23T21:36:30.965Z,6.15
2022-12-23T21:38:59.586Z,6.17
2022-12-23T21:41:30.568Z,6.17
2022-12-23T21:43:59.950Z,6.16
2022-12-23T21:46:29.256Z,6.16
2022-12-23T21:48:57.778Z,6.17
2022-12-23T21:51:31.801Z,6.18
2022-12-23T21:54:05.520Z,6.18
2022-12-23T21:56:34.795Z,6.18
2022-12-23T21:59:04.533Z,6.20
2022-12-23T22:01:33.209Z,6.18
2022-12-23T22:04:00.913Z,6.21
2022-12-23T22:06:30.474Z,6.21
2022-12-23T22:08:58.706Z,6.23
2022-12-23T22:11:28.030Z,6.23
2022-12-23T22:13:58.206Z,6.23
2022-12-23T22:16:27.974Z,6.22
2022-12-23T22:18:56.714Z,6.21
2022-12-23T22:21:26.782Z,6.22
2022-12-23T22:23:55.205Z,6.22
2022-12-23T22:26:26.281Z,6.22
2022-12-23T22:28:55.432Z,6.22
2022-12-23T22:31:30.965Z,6.24
2022-12-23T22:33:58.909Z,6.23
2022-12-23T22:36:26.931Z,6.22
2022-12-23T22:38:56.553Z,6.21
2022-12-23T22:41:25.676Z,6.21
2022-12-23T22:43:53.319Z,6.21
2022-12-23T22:46:21.147Z,6.22
2022-12-23T22:48:50.390Z,6.22
2022-12-23T22:51:20.483Z,6.22
2022-12-23T22:53:48.367Z,6.20
2022-12-23T22:56:17.456Z,6.22
2022-12-23T22:58:45.257Z,6.20
2022-12-23T23:01:22.469Z,6.21
2022-12-23T23:03:57.320Z,6.18
2022-12-23T23:06:26.206Z,6.18
2022-12-23T23:08:54.371Z,6.17
2022-12-23T23:11:23.063Z,6.15
2022-12-23T23:13:50.714Z,6.15
2022-12-23T23:16:18.796Z,6.14
2022-12-23T23:18:46.524Z,6.13
2022-12-23T23:21:15.893Z,6.12
2022-12-23T23:23:43.563Z,6.11
2022-12-23T23:26:11.721Z,6.12
2022-12-23T23:28:39.814Z,6.09
2022-12-23T23:33:57.756Z,6.08
2022-12-23T23:36:26.960Z,6.07
2022-12-23T23:38:54.608Z,6.08
2022-12-23T23:41:23.833Z,6.07
2022-12-23T23:43:51.998Z,6.07
2022-12-23T23:46:19.981Z,6.07
2022-12-23T23:48:48.528Z,6.06
2022-12-23T23:51:16.369Z,6.05
2022-12-23T23:53:45.439Z,6.06
2022-12-23T23:56:13.258Z,6.06
2022-12-23T23:58:40.888Z,6.06
